Boistfort, Washington
Current Conditions -  °F | °C
As of 4:55 PM on Friday 28 Nov 2014 (Local Time) from KCLS Reporting Station
Light Rain Light Rain  
Wind Chill: 39°   Ceiling: 2400
Heat Index: 43°   Visibility: 10mi
Dew Point: 41°   Wind: 6mph
Humidity: 93%   Direction: 300°WNW
Pressure: 29.52"   Gusts: NA
Location:  46.6561°N, 122.993°W
Report Text: KCLS 290055Z AUTO 30005KT 10SM -RA FEW020 BKN024 OVC028 06/05 A2952 RMK AO2
Loading
Personal Weather Stations






























Interactive Weather Map New forecast layout! Learn more

10-Day Weather Forecast

Advertisements
Track Severe Weather on mobile